Time;durP1;ratioP1;P1;durP2;ratioP2;P2;SDS_P1;SDS_P2;PMS_P1;PMS_P2;Temp;Humidity;BMP_temperature;BMP_pressure;BME280_temperature;BME280_humidity;BME280_pressure;Samples;Min_cycle;Max_cycle;Signal;HPM_P1;HPM_P2
2023/05/18 00:01:26;;;;;;;;;;;;;;;;;;5015612;28;19925;-71
2023/05/18 00:03:54;;;;;;;;;;;;;;;;;;5015650;28;19929;-70
2023/05/18 00:06:24;;;;;;;;;;;;;;;;;;5013783;28;19971;-68
2023/05/18 00:08:51;;;;;;;;;;;;;;;;;;5015213;28;19925;-68
2023/05/18 00:11:18;;;;;;;;;;;;;;;;;;5014565;28;20420;-71
2023/05/18 00:13:45;;;;;;;;;;;;;;;;;;5015282;28;19980;-70
2023/05/18 00:16:14;;;;;;;;;;;;;;;;;;5012539;28;19925;-71
2023/05/18 00:18:41;;;;;;;;;;;;;;;;;;5013547;28;19925;-71
2023/05/18 00:21:09;;;;;;;;;;;;;;;;;;5005362;28;19969;-67
2023/05/18 00:23:38;;;;;;;;;;;;;;;;;;5005978;28;20384;-67
2023/05/18 00:26:05;;;;;;;;;;;;;;;;;;5015135;28;19932;-69
2023/05/18 00:28:32;;;;;;;;;;;;;;;;;;5014123;28;19926;-70
2023/05/18 00:30:59;;;;;;;;;;;;;;;;;;5014958;28;20388;-67
2023/05/18 00:33:26;;;;;;;;;;;;;;;;;;5014315;28;19925;-67
2023/05/18 00:35:53;;;;;;;;;;;;;;;;;;5011608;28;20443;-68
2023/05/18 00:38:20;;;;;;;;;;;;;;;;;;4995753;28;19965;-68
2023/05/18 00:40:47;;;;;;;;;;;;;;;;;;5009457;28;19979;-68
2023/05/18 00:43:14;;;;;;;;;;;;;;;;;;5002440;28;19980;-68
2023/05/18 00:45:41;;;;;;;;;;;;;;;;;;5011904;28;19975;-67
2023/05/18 00:48:08;;;;;;;;;;;;;;;;;;5009705;28;19925;-68
2023/05/18 00:50:35;;;;;;;;;;;;;;;;;;5014601;28;20003;-70
2023/05/18 00:53:02;;;;;;;;;;;;;;;;;;5013824;28;19932;-68
2023/05/18 00:55:29;;;;;;;;;;;;;;;;;;5010574;28;19926;-67
2023/05/18 00:57:56;;;;;;;;;;;;;;;;;;4995101;28;19930;-68
2023/05/18 01:00:23;;;;;;;;;;;;;;;;;;5007093;28;19979;-68
2023/05/18 01:02:51;;;;;;;;;;;;;;;;;;5014001;28;20373;-68
2023/05/18 01:05:18;;;;;;;;;;;;;;;;;;4998770;28;19973;-68
2023/05/18 01:07:45;;;;;;;;;;;;;;;;;;5009000;28;20029;-68
2023/05/18 01:10:12;;;;;;;;;;;;;;;;;;5012065;28;19965;-68
2023/05/18 01:12:39;;;;;;;;;;;;;;;;;;5005930;28;19926;-68
2023/05/18 01:15:07;;;;;;;;;;;;;;;;;;4994640;28;19933;-69
2023/05/18 01:17:34;;;;;;;;;;;;;;;;;;5006176;28;19925;-68
2023/05/18 01:20:01;;;;;;;;;;;;;;;;;;5014038;28;19952;-68
2023/05/18 01:22:28;;;;;;;;;;;;;;;;;;5011538;28;19925;-69
2023/05/18 01:24:55;;;;;;;;;;;;;;;;;;5013181;28;19925;-68
2023/05/18 01:27:23;;;;;;;;;;;;;;;;;;4995193;28;20365;-70
2023/05/18 01:29:50;;;;;;;;;;;;;;;;;;5007217;28;19926;-70
2023/05/18 01:32:17;;;;;;;;;;;;;;;;;;5013806;28;19926;-69
2023/05/18 01:34:44;;;;;;;;;;;;;;;;;;5013637;28;20431;-70
2023/05/18 01:37:11;;;;;;;;;;;;;;;;;;5012783;28;19925;-69
2023/05/18 01:39:38;;;;;;;;;;;;;;;;;;5012177;28;19929;-69
2023/05/18 01:42:05;;;;;;;;;;;;;;;;;;5011883;28;20015;-68
2023/05/18 01:44:32;;;;;;;;;;;;;;;;;;5001796;28;19934;-68
2023/05/18 01:46:59;;;;;;;;;;;;;;;;;;5005434;28;19925;-69
2023/05/18 01:49:26;;;;;;;;;;;;;;;;;;5013262;28;20418;-69
2023/05/18 01:51:53;;;;;;;;;;;;;;;;;;5010061;28;19937;-69
2023/05/18 01:54:20;;;;;;;;;;;;;;;;;;5011403;28;20435;-69
2023/05/18 01:56:47;;;;;;;;;;;;;;;;;;4998618;28;19925;-69
2023/05/18 01:59:14;;;;;;;;;;;;;;;;;;5012541;28;19995;-69
2023/05/18 02:01:41;;;;;;;;;;;;;;;;;;5012647;28;19926;-69
2023/05/18 02:04:09;;;;;;;;;;;;;;;;;;5011084;28;19995;-69
2023/05/18 02:06:36;;;;;;;;;;;;;;;;;;5012519;28;19968;-68
2023/05/18 02:09:04;;;;;;;;;;;;;;;;;;5003996;28;20266;-68
2023/05/18 02:11:31;;;;;;;;;;;;;;;;;;5003412;28;20052;-68
2023/05/18 02:13:58;;;;;;;;;;;;;;;;;;5007490;28;20048;-68
2023/05/18 02:16:25;;;;;;;;;;;;;;;;;;5002667;28;20388;-68
2023/05/18 02:18:52;;;;;;;;;;;;;;;;;;5012417;28;19925;-68
2023/05/18 02:21:19;;;;;;;;;;;;;;;;;;5011756;28;19935;-68
2023/05/18 02:23:46;;;;;;;;;;;;;;;;;;5011860;28;19996;-68
2023/05/18 02:26:13;;;;;;;;;;;;;;;;;;5011488;28;19932;-68
2023/05/18 02:28:40;;;;;;;;;;;;;;;;;;5006596;28;19953;-68
2023/05/18 02:31:07;;;;;;;;;;;;;;;;;;5007050;28;20351;-68
2023/05/18 02:33:38;;;;;;;;;;;;;;;;;;5012060;28;20451;-68
2023/05/18 02:36:05;;;;;;;;;;;;;;;;;;5011439;28;19926;-68
2023/05/18 02:38:32;;;;;;;;;;;;;;;;;;5010331;28;19940;-68
2023/05/18 02:40:59;;;;;;;;;;;;;;;;;;5011055;28;19926;-68
2023/05/18 02:43:26;;;;;;;;;;;;;;;;;;5010856;28;19933;-68
2023/05/18 02:45:53;;;;;;;;;;;;;;;;;;5010005;28;19976;-67
2023/05/18 02:48:20;;;;;;;;;;;;;;;;;;5010042;28;19925;-68
2023/05/18 02:50:47;;;;;;;;;;;;;;;;;;5012304;28;19930;-68
2023/05/18 02:53:14;;;;;;;;;;;;;;;;;;5007153;28;20454;-68
2023/05/18 02:55:42;;;;;;;;;;;;;;;;;;4999523;28;20373;-67
2023/05/18 02:58:09;;;;;;;;;;;;;;;;;;5010698;28;19929;-67
2023/05/18 03:00:36;;;;;;;;;;;;;;;;;;5003631;28;19988;-68
2023/05/18 03:03:03;;;;;;;;;;;;;;;;;;5011131;28;19925;-68
2023/05/18 03:05:30;;;;;;;;;;;;;;;;;;5008722;28;20044;-68
2023/05/18 03:07:57;;;;;;;;;;;;;;;;;;5006403;28;19929;-68
2023/05/18 03:10:24;;;;;;;;;;;;;;;;;;5008254;28;19980;-69
2023/05/18 03:12:51;;;;;;;;;;;;;;;;;;5008924;28;19988;-69
2023/05/18 03:15:18;;;;;;;;;;;;;;;;;;5010037;28;19972;-69
2023/05/18 03:17:45;;;;;;;;;;;;;;;;;;5010057;28;20012;-69
2023/05/18 03:20:13;;;;;;;;;;;;;;;;;;5010532;28;20016;-69
2023/05/18 03:22:40;;;;;;;;;;;;;;;;;;4994908;28;19980;-68
2023/05/18 03:25:07;;;;;;;;;;;;;;;;;;5006129;28;19929;-69
2023/05/18 03:27:36;;;;;;;;;;;;;;;;;;5011470;28;20343;-68
2023/05/18 03:30:03;;;;;;;;;;;;;;;;;;5002567;28;20012;-69
2023/05/18 03:32:30;;;;;;;;;;;;;;;;;;5002936;28;19925;-68
2023/05/18 03:34:59;;;;;;;;;;;;;;;;;;5012506;28;20346;-69
2023/05/18 03:37:26;;;;;;;;;;;;;;;;;;5012182;28;19933;-69
2023/05/18 03:39:54;;;;;;;;;;;;;;;;;;5010670;28;20446;-70
2023/05/18 03:42:21;;;;;;;;;;;;;;;;;;5003541;28;19925;-70
2023/05/18 03:44:48;;;;;;;;;;;;;;;;;;5010589;28;20269;-70
2023/05/18 03:47:16;;;;;;;;;;;;;;;;;;5010538;28;19925;-70
2023/05/18 03:49:43;;;;;;;;;;;;;;;;;;5011342;28;20013;-70
2023/05/18 03:52:10;;;;;;;;;;;;;;;;;;5010306;28;19940;-70
2023/05/18 03:54:37;;;;;;;;;;;;;;;;;;5010780;28;19929;-69
2023/05/18 03:57:04;;;;;;;;;;;;;;;;;;5003195;28;20388;-70
2023/05/18 03:59:31;;;;;;;;;;;;;;;;;;5012610;28;20380;-69
2023/05/18 04:01:59;;;;;;;;;;;;;;;;;;5008449;28;19979;-68
2023/05/18 04:04:26;;;;;;;;;;;;;;;;;;5014576;28;19926;-69
2023/05/18 04:06:53;;;;;;;;;;;;;;;;;;5014468;28;19979;-69
2023/05/18 04:09:22;;;;;;;;;;;;;;;;;;5012665;28;19926;-69
2023/05/18 04:11:49;;;;;;;;;;;;;;;;;;5008034;28;20292;-69
2023/05/18 04:14:16;;;;;;;;;;;;;;;;;;5010919;28;19925;-69
2023/05/18 04:16:43;;;;;;;;;;;;;;;;;;5009957;28;19932;-68
2023/05/18 04:19:10;;;;;;;;;;;;;;;;;;5012979;28;20297;-68
2023/05/18 04:21:38;;;;;;;;;;;;;;;;;;5000828;28;19926;-68
2023/05/18 04:24:06;;;;;;;;;;;;;;;;;;5008114;28;20024;-68
2023/05/18 04:26:33;;;;;;;;;;;;;;;;;;5011617;28;19968;-69
2023/05/18 04:29:00;;;;;;;;;;;;;;;;;;5011427;28;19932;-69
2023/05/18 04:31:28;;;;;;;;;;;;;;;;;;5008888;28;20464;-69
2023/05/18 04:33:56;;;;;;;;;;;;;;;;;;5009523;28;20505;-69
2023/05/18 04:36:24;;;;;;;;;;;;;;;;;;5011988;28;20447;-69
2023/05/18 04:38:51;;;;;;;;;;;;;;;;;;5013748;28;19988;-69
2023/05/18 04:41:19;;;;;;;;;;;;;;;;;;5010850;28;19925;-69
2023/05/18 04:43:46;;;;;;;;;;;;;;;;;;4999852;28;19929;-69
2023/05/18 04:46:15;;;;;;;;;;;;;;;;;;5008592;28;19925;-69
2023/05/18 04:48:42;;;;;;;;;;;;;;;;;;5013055;28;19988;-70
2023/05/18 04:51:09;;;;;;;;;;;;;;;;;;5013385;28;19960;-70
2023/05/18 04:53:37;;;;;;;;;;;;;;;;;;5013226;28;19961;-69
2023/05/18 04:56:05;;;;;;;;;;;;;;;;;;5010303;28;19925;-69
2023/05/18 04:58:32;;;;;;;;;;;;;;;;;;5012710;28;19933;-69
2023/05/18 05:00:59;;;;;;;;;;;;;;;;;;5003214;28;20353;-69
2023/05/18 05:03:26;;;;;;;;;;;;;;;;;;5011564;28;19987;-69
2023/05/18 05:05:53;;;;;;;;;;;;;;;;;;5002903;28;19937;-69
2023/05/18 05:08:20;;;;;;;;;;;;;;;;;;5011598;28;19987;-69
2023/05/18 05:10:47;;;;;;;;;;;;;;;;;;5012879;28;19929;-70
2023/05/18 05:13:15;;;;;;;;;;;;;;;;;;5008263;28;20351;-69
2023/05/18 05:15:42;;;;;;;;;;;;;;;;;;5003156;28;20004;-71
2023/05/18 05:18:09;;;;;;;;;;;;;;;;;;5013486;28;19983;-69
2023/05/18 05:20:35;;;;;;;;;;;;;;;;;;5012148;28;20456;-68
2023/05/18 05:23:02;;;;;;;;;;;;;;;;;;5013574;28;19979;-69
2023/05/18 05:25:30;;;;;;;;;;;;;;;;;;5013236;28;19980;-67
2023/05/18 05:27:56;;;;;;;;;;;;;;;;;;5011829;28;19925;-67
2023/05/18 05:30:23;;;;;;;;;;;;;;;;;;5007094;28;20396;-68
2023/05/18 05:32:50;;;;;;;;;;;;;;;;;;5008545;28;19925;-68
2023/05/18 05:35:17;;;;;;;;;;;;;;;;;;5013332;28;19968;-68
2023/05/18 05:37:45;;;;;;;;;;;;;;;;;;5013134;28;19945;-70
2023/05/18 05:40:12;;;;;;;;;;;;;;;;;;5012636;28;19971;-69
2023/05/18 05:42:40;;;;;;;;;;;;;;;;;;5009133;28;20331;-69
2023/05/18 05:45:07;;;;;;;;;;;;;;;;;;5013325;28;19933;-69
2023/05/18 05:47:34;;;;;;;;;;;;;;;;;;5007408;28;19929;-70
2023/05/18 05:50:01;;;;;;;;;;;;;;;;;;5009800;28;19933;-67
2023/05/18 05:52:28;;;;;;;;;;;;;;;;;;5010290;28;19925;-68
2023/05/18 05:54:55;;;;;;;;;;;;;;;;;;5007795;28;19964;-68
2023/05/18 05:57:22;;;;;;;;;;;;;;;;;;5010995;28;19932;-68
2023/05/18 05:59:49;;;;;;;;;;;;;;;;;;5002900;28;19930;-68
2023/05/18 06:02:16;;;;;;;;;;;;;;;;;;5010532;28;19932;-68
2023/05/18 06:04:43;;;;;;;;;;;;;;;;;;5008495;28;19926;-69
2023/05/18 06:07:11;;;;;;;;;;;;;;;;;;5004025;28;19979;-68
2023/05/18 06:09:38;;;;;;;;;;;;;;;;;;5005418;28;19972;-68
2023/05/18 06:12:05;;;;;;;;;;;;;;;;;;5012720;28;20385;-68
2023/05/18 06:14:32;;;;;;;;;;;;;;;;;;5011973;28;19979;-68
2023/05/18 06:16:59;;;;;;;;;;;;;;;;;;5009197;28;19964;-68
2023/05/18 06:19:26;;;;;;;;;;;;;;;;;;5011862;28;19995;-69
2023/05/18 06:21:53;;;;;;;;;;;;;;;;;;5001261;28;19984;-69
2023/05/18 06:24:20;;;;;;;;;;;;;;;;;;4998893;28;20296;-69
2023/05/18 06:26:47;;;;;;;;;;;;;;;;;;5009880;28;19925;-69
2023/05/18 06:29:14;;;;;;;;;;;;;;;;;;5016248;28;19987;-68
2023/05/18 06:31:41;;;;;;;;;;;;;;;;;;5018894;28;19926;-68
2023/05/18 06:34:08;;;;;;;;;;;;;;;;;;5010612;28;19992;-68
2023/05/18 06:36:36;;;;;;;;;;;;;;;;;;5010696;28;19926;-68
2023/05/18 06:39:04;;;;;;;;;;;;;;;;;;5006674;28;19964;-69
2023/05/18 06:41:31;;;;;;;;;;;;;;;;;;5007109;28;19926;-69
2023/05/18 06:44:00;;;;;;;;;;;;;;;;;;4996918;28;19973;-70
2023/05/18 06:46:27;;;;;;;;;;;;;;;;;;5000318;28;19965;-69
2023/05/18 06:48:54;;;;;;;;;;;;;;;;;;5005012;28;19941;-70
2023/05/18 06:51:21;;;;;;;;;;;;;;;;;;5007685;28;19948;-69
2023/05/18 06:53:49;;;;;;;;;;;;;;;;;;5003078;28;19936;-69
2023/05/18 06:56:17;;;;;;;;;;;;;;;;;;5000720;28;19926;-69
2023/05/18 06:58:44;;;;;;;;;;;;;;;;;;5005608;28;20376;-69
2023/05/18 07:01:11;;;;;;;;;;;;;;;;;;5005634;28;19930;-69
2023/05/18 07:03:38;;;;;;;;;;;;;;;;;;5010056;28;20371;-70
2023/05/18 07:06:05;;;;;;;;;;;;;;;;;;4997100;28;19972;-70
2023/05/18 07:08:32;;;;;;;;;;;;;;;;;;4997074;28;19926;-69
2023/05/18 07:11:01;;;;;;;;;;;;;;;;;;4996570;28;19965;-70
2023/05/18 07:13:28;;;;;;;;;;;;;;;;;;5006751;28;19987;-70
2023/05/18 07:15:55;;;;;;;;;;;;;;;;;;5009843;28;20396;-69
2023/05/18 07:18:22;;;;;;;;;;;;;;;;;;5004605;28;19941;-69
2023/05/18 07:20:49;;;;;;;;;;;;;;;;;;5009080;28;19995;-69
2023/05/18 07:23:16;;;;;;;;;;;;;;;;;;5007871;28;20083;-69
2023/05/18 07:25:43;;;;;;;;;;;;;;;;;;5008869;28;20044;-69
2023/05/18 07:28:10;;;;;;;;;;;;;;;;;;5008866;28;20350;-68
2023/05/18 07:30:37;;;;;;;;;;;;;;;;;;5007247;28;19933;-69
2023/05/18 07:33:04;;;;;;;;;;;;;;;;;;5002875;28;20020;-68
2023/05/18 07:35:31;;;;;;;;;;;;;;;;;;5013819;28;20388;-69
2023/05/18 07:37:58;;;;;;;;;;;;;;;;;;5012268;28;20007;-68
2023/05/18 07:40:25;;;;;;;;;;;;;;;;;;5011985;28;20296;-68
2023/05/18 07:42:52;;;;;;;;;;;;;;;;;;5005161;28;19941;-69
2023/05/18 07:45:19;;;;;;;;;;;;;;;;;;5012482;28;19963;-69
2023/05/18 07:47:46;;;;;;;;;;;;;;;;;;5006572;28;19925;-68
2023/05/18 07:50:13;;;;;;;;;;;;;;;;;;5013569;28;19925;-69
2023/05/18 07:52:41;;;;;;;;;;;;;;;;;;5011898;28;19929;-69
2023/05/18 07:55:08;;;;;;;;;;;;;;;;;;5014003;28;19925;-70
2023/05/18 07:57:35;;;;;;;;;;;;;;;;;;5012860;28;20451;-69
2023/05/18 08:00:03;;;;;;;;;;;;;;;;;;5011267;28;20359;-69
2023/05/18 08:02:31;;;;;;;;;;;;;;;;;;5009616;28;19929;-70
2023/05/18 08:04:58;;;;;;;;;;;;;;;;;;5005795;28;19980;-70
2023/05/18 08:07:25;;;;;;;;;;;;;;;;;;5009222;28;19929;-69
2023/05/18 08:09:52;;;;;;;;;;;;;;;;;;5010991;28;19937;-70
2023/05/18 08:12:19;;;;;;;;;;;;;;;;;;5013034;28;20588;-71
2023/05/18 08:14:46;;;;;;;;;;;;;;;;;;5010821;28;19929;-72
2023/05/18 08:17:13;;;;;;;;;;;;;;;;;;5011873;28;20439;-72
2023/05/18 08:19:40;;;;;;;;;;;;;;;;;;5012203;28;19984;-70
2023/05/18 08:22:07;;;;;;;;;;;;;;;;;;5010100;28;19929;-71
2023/05/18 08:24:34;;;;;;;;;;;;;;;;;;5011891;28;19992;-71
2023/05/18 08:27:02;;;;;;;;;;;;;;;;;;5001025;28;19945;-71
2023/05/18 08:29:33;;;;;;;;;;;;;;;;;;5013569;28;20284;-73
2023/05/18 08:32:00;;;;;;;;;;;;;;;;;;5012603;28;19926;-70
2023/05/18 08:34:28;;;;;;;;;;;;;;;;;;5010792;28;19957;-70
2023/05/18 08:36:55;;;;;;;;;;;;;;;;;;5010780;28;19933;-70
2023/05/18 08:39:22;;;;;;;;;;;;;;;;;;5010687;28;19979;-70
2023/05/18 08:41:49;;;;;;;;;;;;;;;;;;5010735;28;19930;-70
2023/05/18 08:44:16;;;;;;;;;;;;;;;;;;5003720;28;20364;-69
2023/05/18 08:46:46;;;;;;;;;;;;;;;;;;5007537;28;19933;-67
2023/05/18 08:49:13;;;;;;;;;;;;;;;;;;5003871;28;19969;-67
2023/05/18 08:51:41;;;;;;;;;;;;;;;;;;5008866;28;20281;-71
2023/05/18 08:54:08;;;;;;;;;;;;;;;;;;5002308;28;19961;-70
2023/05/18 08:56:35;;;;;;;;;;;;;;;;;;5005064;28;19979;-70
2023/05/18 08:59:02;;;;;;;;;;;;;;;;;;5010307;28;20369;-69
2023/05/18 09:01:30;;;;;;;;;;;;;;;;;;5011508;28;19940;-71
2023/05/18 09:03:57;;;;;;;;;;;;;;;;;;5011786;28;19926;-67
2023/05/18 09:06:25;;;;;;;;;;;;;;;;;;5010972;28;20023;-68
2023/05/18 09:08:52;;;;;;;;;;;;;;;;;;5006141;28;20012;-69
2023/05/18 09:11:19;;;;;;;;;;;;;;;;;;5009486;28;19926;-68
2023/05/18 09:13:46;;;;;;;;;;;;;;;;;;5005866;28;20291;-68
2023/05/18 09:16:13;;;;;;;;;;;;;;;;;;4994214;28;19930;-68
2023/05/18 09:18:40;;;;;;;;;;;;;;;;;;5006958;28;19926;-67
2023/05/18 09:21:07;;;;;;;;;;;;;;;;;;5009636;28;19925;-68
2023/05/18 09:23:34;;;;;;;;;;;;;;;;;;5009047;28;20351;-67
2023/05/18 09:26:03;;;;;;;;;;;;;;;;;;5004222;28;19972;-68
2023/05/18 09:28:30;;;;;;;;;;;;;;;;;;4997731;28;19926;-67
2023/05/18 09:30:57;;;;;;;;;;;;;;;;;;5007093;28;19968;-68
2023/05/18 09:33:24;;;;;;;;;;;;;;;;;;5012425;28;19934;-68
2023/05/18 09:35:51;;;;;;;;;;;;;;;;;;5011091;28;19988;-67
2023/05/18 09:38:20;;;;;;;;;;;;;;;;;;5011563;28;19979;-67
2023/05/18 09:40:47;;;;;;;;;;;;;;;;;;5005804;28;19929;-67
2023/05/18 09:43:14;;;;;;;;;;;;;;;;;;5012014;28;20431;-66
2023/05/18 09:45:41;;;;;;;;;;;;;;;;;;5007701;28;20055;-67
2023/05/18 09:48:09;;;;;;;;;;;;;;;;;;5000952;28;19937;-67
2023/05/18 09:50:36;;;;;;;;;;;;;;;;;;5008883;28;19925;-68
2023/05/18 09:53:03;;;;;;;;;;;;;;;;;;5010493;28;20451;-68
2023/05/18 09:55:30;;;;;;;;;;;;;;;;;;5005355;28;19976;-67
2023/05/18 09:57:57;;;;;;;;;;;;;;;;;;5006106;28;19925;-68
2023/05/18 10:00:25;;;;;;;;;;;;;;;;;;5007407;28;19968;-68
2023/05/18 10:02:52;;;;;;;;;;;;;;;;;;5009562;28;19970;-68
2023/05/18 10:05:19;;;;;;;;;;;;;;;;;;5006822;28;20313;-67
2023/05/18 10:07:47;;;;;;;;;;;;;;;;;;5001393;28;19934;-68
2023/05/18 10:10:14;;;;;;;;;;;;;;;;;;4998907;28;19926;-66
2023/05/18 10:12:41;;;;;;;;;;;;;;;;;;5003387;28;19926;-67
2023/05/18 10:15:08;;;;;;;;;;;;;;;;;;5005483;28;20344;-67
2023/05/18 10:17:36;;;;;;;;;;;;;;;;;;5004080;28;19980;-67
2023/05/18 10:20:04;;;;;;;;;;;;;;;;;;5006892;28;19925;-67
2023/05/18 10:22:31;;;;;;;;;;;;;;;;;;5010178;28;19957;-68
2023/05/18 10:24:58;;;;;;;;;;;;;;;;;;5011215;28;19972;-68
2023/05/18 10:27:25;;;;;;;;;;;;;;;;;;5012346;28;19925;-68
2023/05/18 10:29:55;;;;;;;;;;;;;;;;;;5009343;28;20060;-68
2023/05/18 10:32:22;;;;;;;;;;;;;;;;;;5011429;28;19925;-68
2023/05/18 10:34:50;;;;;;;;;;;;;;;;;;5012096;28;19940;-68
2023/05/18 10:37:17;;;;;;;;;;;;;;;;;;5003211;28;19937;-69
2023/05/18 10:39:44;;;;;;;;;;;;;;;;;;5002945;28;20039;-69
2023/05/18 10:42:11;;;;;;;;;;;;;;;;;;5011453;28;19926;-68
2023/05/18 10:44:38;;;;;;;;;;;;;;;;;;4999943;28;19989;-68
2023/05/18 10:47:06;;;;;;;;;;;;;;;;;;5010796;28;19931;-69
2023/05/18 10:49:33;;;;;;;;;;;;;;;;;;5004862;28;20420;-69
2023/05/18 10:52:00;;;;;;;;;;;;;;;;;;5010038;28;19941;-69
2023/05/18 10:54:32;;;;;;;;;;;;;;;;;;4999124;28;20399;-68
2023/05/18 10:56:59;;;;;;;;;;;;;;;;;;5003976;28;20012;-68
2023/05/18 10:59:26;;;;;;;;;;;;;;;;;;5010268;28;19941;-67
2023/05/18 11:01:53;;;;;;;;;;;;;;;;;;5010108;28;19929;-67
2023/05/18 11:04:20;;;;;;;;;;;;;;;;;;5011813;28;20253;-67
2023/05/18 11:06:47;;;;;;;;;;;;;;;;;;5013468;28;19925;-68
2023/05/18 11:09:14;;;;;;;;;;;;;;;;;;5014506;28;19979;-68
2023/05/18 11:11:41;;;;;;;;;;;;;;;;;;4999711;28;20008;-69
2023/05/18 11:14:08;;;;;;;;;;;;;;;;;;5014945;28;20015;-69
2023/05/18 11:16:35;;;;;;;;;;;;;;;;;;5015129;28;20384;-68
2023/05/18 11:19:02;;;;;;;;;;;;;;;;;;5015212;28;20019;-68
2023/05/18 11:21:31;;;;;;;;;;;;;;;;;;5001274;28;19969;-69
2023/05/18 11:23:58;;;;;;;;;;;;;;;;;;5013102;28;20004;-69
2023/05/18 11:26:25;;;;;;;;;;;;;;;;;;5001819;28;20408;-68
2023/05/18 11:28:52;;;;;;;;;;;;;;;;;;5010209;28;19992;-68
2023/05/18 11:31:19;;;;;;;;;;;;;;;;;;5008252;28;20638;-68
2023/05/18 11:33:46;;;;;;;;;;;;;;;;;;5009079;28;20408;-68
2023/05/18 11:36:14;;;;;;;;;;;;;;;;;;5011317;28;19960;-68
2023/05/18 11:38:41;;;;;;;;;;;;;;;;;;5011776;28;20322;-69
2023/05/18 11:41:09;;;;;;;;;;;;;;;;;;5001484;28;19926;-68
2023/05/18 11:43:36;;;;;;;;;;;;;;;;;;5004351;28;19926;-69
2023/05/18 11:46:03;;;;;;;;;;;;;;;;;;5007781;28;19987;-69
2023/05/18 11:48:30;;;;;;;;;;;;;;;;;;5007468;28;20020;-69
2023/05/18 11:50:57;;;;;;;;;;;;;;;;;;5011687;28;19976;-69
2023/05/18 11:53:25;;;;;;;;;;;;;;;;;;5012452;28;19926;-69
2023/05/18 11:55:51;;;;;;;;;;;;;;;;;;5012604;28;19975;-69
2023/05/18 11:58:19;;;;;;;;;;;;;;;;;;5009926;28;20389;-68
2023/05/18 12:00:46;;;;;;;;;;;;;;;;;;5005363;28;19941;-68
2023/05/18 12:03:13;;;;;;;;;;;;;;;;;;5002874;28;20389;-69
2023/05/18 12:05:42;;;;;;;;;;;;;;;;;;5004764;28;20015;-69
2023/05/18 12:08:09;;;;;;;;;;;;;;;;;;5004633;28;20365;-69
2023/05/18 12:10:37;;;;;;;;;;;;;;;;;;5011701;28;19980;-68
2023/05/18 12:13:04;;;;;;;;;;;;;;;;;;5005425;28;19991;-66
2023/05/18 12:15:31;;;;;;;;;;;;;;;;;;5011212;28;19925;-69
2023/05/18 12:17:58;;;;;;;;;;;;;;;;;;5001646;28;19934;-69
2023/05/18 12:20:25;;;;;;;;;;;;;;;;;;5012446;28;20022;-68
2023/05/18 12:22:52;;;;;;;;;;;;;;;;;;5012112;28;19925;-68
2023/05/18 12:25:20;;;;;;;;;;;;;;;;;;5007237;28;19953;-68
2023/05/18 12:27:47;;;;;;;;;;;;;;;;;;5010016;28;19925;-69
2023/05/18 12:30:14;;;;;;;;;;;;;;;;;;5006460;28;20016;-68
2023/05/18 12:32:41;;;;;;;;;;;;;;;;;;5002731;28;19933;-69
2023/05/18 12:35:08;;;;;;;;;;;;;;;;;;5010437;28;19999;-69
2023/05/18 12:37:35;;;;;;;;;;;;;;;;;;5007959;28;20078;-69
2023/05/18 12:40:03;;;;;;;;;;;;;;;;;;5006302;28;19968;-69
2023/05/18 12:42:30;;;;;;;;;;;;;;;;;;5000218;28;19926;-66
2023/05/18 12:44:57;;;;;;;;;;;;;;;;;;5010514;28;19932;-68
2023/05/18 12:47:24;;;;;;;;;;;;;;;;;;5011590;28;20477;-67
2023/05/18 12:49:51;;;;;;;;;;;;;;;;;;5011248;28;19972;-67
2023/05/18 12:52:18;;;;;;;;;;;;;;;;;;5003086;28;19980;-67
2023/05/18 12:54:48;;;;;;;;;;;;;;;;;;5007969;28;20433;-67
2023/05/18 12:57:15;;;;;;;;;;;;;;;;;;5012218;28;19948;-67
2023/05/18 12:59:42;;;;;;;;;;;;;;;;;;5011923;28;19925;-67
2023/05/18 13:02:09;;;;;;;;;;;;;;;;;;5007787;28;19932;-69
2023/05/18 13:04:36;;;;;;;;;;;;;;;;;;5009645;28;19940;-69
2023/05/18 13:07:03;;;;;;;;;;;;;;;;;;5005593;28;19930;-69
2023/05/18 13:09:30;;;;;;;;;;;;;;;;;;5011177;28;19925;-67
2023/05/18 13:11:57;;;;;;;;;;;;;;;;;;4997605;28;19929;-67
2023/05/18 13:14:24;;;;;;;;;;;;;;;;;;4997268;28;19937;-67
2023/05/18 13:16:51;;;;;;;;;;;;;;;;;;5009774;28;19980;-67
2023/05/18 13:19:18;;;;;;;;;;;;;;;;;;5009713;28;19929;-69
2023/05/18 13:21:45;;;;;;;;;;;;;;;;;;5006275;28;19930;-67
2023/05/18 13:24:12;;;;;;;;;;;;;;;;;;5002829;28;19969;-68
2023/05/18 13:26:39;;;;;;;;;;;;;;;;;;5009242;28;19933;-67
2023/05/18 13:29:07;;;;;;;;;;;;;;;;;;5005423;28;19929;-67
2023/05/18 13:31:34;;;;;;;;;;;;;;;;;;5007725;28;19940;-68
2023/05/18 13:34:02;;;;;;;;;;;;;;;;;;5004357;28;19937;-67
2023/05/18 13:36:31;;;;;;;;;;;;;;;;;;5003724;28;19932;-66
2023/05/18 13:38:58;;;;;;;;;;;;;;;;;;5004681;28;20435;-68
2023/05/18 13:41:25;;;;;;;;;;;;;;;;;;5011660;28;19925;-68
2023/05/18 13:43:52;;;;;;;;;;;;;;;;;;5006736;28;19932;-67
2023/05/18 13:46:19;;;;;;;;;;;;;;;;;;5008981;28;19933;-68
2023/05/18 13:48:46;;;;;;;;;;;;;;;;;;5008240;28;19929;-68
2023/05/18 13:51:13;;;;;;;;;;;;;;;;;;4998329;28;20003;-66
2023/05/18 13:53:40;;;;;;;;;;;;;;;;;;5001773;28;19964;-66
2023/05/18 13:56:07;;;;;;;;;;;;;;;;;;5004564;28;19961;-66
2023/05/18 13:58:34;;;;;;;;;;;;;;;;;;5004682;28;19968;-66
2023/05/18 14:01:06;;;;;;;;;;;;;;;;;;5006618;28;19941;-67
2023/05/18 14:03:35;;;;;;;;;;;;;;;;;;5005020;28;19930;-66
2023/05/18 14:06:02;;;;;;;;;;;;;;;;;;5002959;28;19968;-67
2023/05/18 14:08:29;;;;;;;;;;;;;;;;;;5004381;28;19988;-66
2023/05/18 14:10:56;;;;;;;;;;;;;;;;;;5008545;28;20353;-68
2023/05/18 14:13:23;;;;;;;;;;;;;;;;;;5004819;28;19956;-69
2023/05/18 14:15:52;;;;;;;;;;;;;;;;;;5007386;28;20296;-67
2023/05/18 14:18:19;;;;;;;;;;;;;;;;;;5010854;28;20368;-67
2023/05/18 14:20:47;;;;;;;;;;;;;;;;;;5005318;28;20386;-67
2023/05/18 14:23:14;;;;;;;;;;;;;;;;;;5000555;28;19936;-67
2023/05/18 14:25:44;;;;;;;;;;;;;;;;;;5008552;28;19926;-68
2023/05/18 14:28:12;;;;;;;;;;;;;;;;;;4998584;28;19937;-68
2023/05/18 14:30:39;;;;;;;;;;;;;;;;;;5000541;28;19933;-68
2023/05/18 14:33:06;;;;;;;;;;;;;;;;;;5008404;28;19975;-68
2023/05/18 14:35:33;;;;;;;;;;;;;;;;;;5004966;28;19933;-68
2023/05/18 14:38:01;;;;;;;;;;;;;;;;;;5010412;28;20312;-67
2023/05/18 14:40:28;;;;;;;;;;;;;;;;;;5008201;28;19925;-68
2023/05/18 14:42:55;;;;;;;;;;;;;;;;;;5008858;28;19984;-68
2023/05/18 14:45:22;;;;;;;;;;;;;;;;;;5003853;28;19926;-68
2023/05/18 14:47:49;;;;;;;;;;;;;;;;;;5004781;28;20028;-70
2023/05/18 14:50:16;;;;;;;;;;;;;;;;;;5002292;28;19987;-70
2023/05/18 14:52:43;;;;;;;;;;;;;;;;;;5001181;28;19925;-70
2023/05/18 14:55:10;;;;;;;;;;;;;;;;;;5004036;28;20442;-69
2023/05/18 14:57:37;;;;;;;;;;;;;;;;;;5003926;28;19933;-68
2023/05/18 15:00:04;;;;;;;;;;;;;;;;;;5004867;28;19933;-71
2023/05/18 15:02:32;;;;;;;;;;;;;;;;;;5003866;28;20360;-72
2023/05/18 15:04:59;;;;;;;;;;;;;;;;;;4999094;28;19929;-72
2023/05/18 15:07:26;;;;;;;;;;;;;;;;;;5004132;28;20396;-73
2023/05/18 15:09:54;;;;;;;;;;;;;;;;;;5005523;28;19980;-72
2023/05/18 15:12:22;;;;;;;;;;;;;;;;;;5004385;28;19930;-74
2023/05/18 15:14:49;;;;;;;;;;;;;;;;;;5002708;28;19988;-73
2023/05/18 15:17:16;;;;;;;;;;;;;;;;;;5005228;28;19933;-74
2023/05/18 15:19:43;;;;;;;;;;;;;;;;;;5003987;28;20419;-71
2023/05/18 15:22:10;;;;;;;;;;;;;;;;;;5005269;28;19926;-71
2023/05/18 15:24:37;;;;;;;;;;;;;;;;;;5003576;28;19929;-72
2023/05/18 15:27:04;;;;;;;;;;;;;;;;;;5002786;28;19925;-69
2023/05/18 15:29:31;;;;;;;;;;;;;;;;;;5005871;28;20360;-70
2023/05/18 15:31:59;;;;;;;;;;;;;;;;;;5002811;28;19979;-73
2023/05/18 15:34:26;;;;;;;;;;;;;;;;;;5003312;28;19936;-71
2023/05/18 15:36:53;;;;;;;;;;;;;;;;;;5007228;28;19936;-70
2023/05/18 15:39:20;;;;;;;;;;;;;;;;;;5003716;28;19937;-70
2023/05/18 15:41:48;;;;;;;;;;;;;;;;;;5009708;28;19969;-71
2023/05/18 15:44:15;;;;;;;;;;;;;;;;;;5007688;28;20424;-70
2023/05/18 15:46:42;;;;;;;;;;;;;;;;;;5005044;28;19961;-74
2023/05/18 15:49:09;;;;;;;;;;;;;;;;;;5005982;28;20003;-70
2023/05/18 15:51:36;;;;;;;;;;;;;;;;;;5005697;28;19956;-70
2023/05/18 15:54:03;;;;;;;;;;;;;;;;;;5012020;28;20466;-71
2023/05/18 15:56:30;;;;;;;;;;;;;;;;;;5014183;28;19957;-70
2023/05/18 15:58:58;;;;;;;;;;;;;;;;;;5005303;28;20022;-74
2023/05/18 16:01:25;;;;;;;;;;;;;;;;;;5010312;28;20012;-70
2023/05/18 16:03:52;;;;;;;;;;;;;;;;;;5011776;28;19955;-68
2023/05/18 16:06:18;;;;;;;;;;;;;;;;;;5000644;28;20467;-68
2023/05/18 16:08:45;;;;;;;;;;;;;;;;;;5005426;28;19937;-72
2023/05/18 16:11:12;;;;;;;;;;;;;;;;;;5008860;28;20373;-70
2023/05/18 16:13:39;;;;;;;;;;;;;;;;;;5013175;28;19942;-69
2023/05/18 16:16:08;;;;;;;;;;;;;;;;;;4996103;28;19965;-70
2023/05/18 16:18:35;;;;;;;;;;;;;;;;;;5004674;28;19930;-70
2023/05/18 16:21:02;;;;;;;;;;;;;;;;;;5000887;28;19956;-70
2023/05/18 16:23:30;;;;;;;;;;;;;;;;;;5012684;28;19925;-70
2023/05/18 16:25:58;;;;;;;;;;;;;;;;;;5009345;28;19929;-71
2023/05/18 16:28:25;;;;;;;;;;;;;;;;;;5005704;28;19952;-68
2023/05/18 16:30:52;;;;;;;;;;;;;;;;;;5011497;28;19988;-70
2023/05/18 16:33:19;;;;;;;;;;;;;;;;;;5002264;28;19996;-70
2023/05/18 16:35:46;;;;;;;;;;;;;;;;;;5007401;28;19964;-69
2023/05/18 16:38:13;;;;;;;;;;;;;;;;;;5010338;28;20311;-70
2023/05/18 16:40:40;;;;;;;;;;;;;;;;;;5012183;28;19929;-70
2023/05/18 16:43:08;;;;;;;;;;;;;;;;;;5005957;28;19936;-69
2023/05/18 16:45:34;;;;;;;;;;;;;;;;;;5010032;28;19932;-69